Time;durP1;ratioP1;P1;durP2;ratioP2;P2;SDS_P1;SDS_P2;PMS_P1;PMS_P2;Temp;Humidity;BMP_temperature;BMP_pressure;BME280_temperature;BME280_humidity;BME280_pressure;Samples;Min_cycle;Max_cycle;Signal;HPM_P1;HPM_P2
2022/12/16 00:00:25;;;;;;;37.45;17.10;;;-0.70;99.90;;;;;;5062867;28;20047;-70
2022/12/16 00:02:51;;;;;;;38.80;17.75;;;-0.70;99.90;;;;;;5079994;28;20048;-70
2022/12/16 00:05:19;;;;;;;42.22;16.92;;;-0.70;99.90;;;;;;5089531;28;20062;-70
2022/12/16 00:07:46;;;;;;;36.63;16.75;;;-0.70;99.90;;;;;;5070248;28;20052;-70
2022/12/16 00:10:12;;;;;;;34.30;15.38;;;-0.70;99.90;;;;;;5070611;28;20063;-70
2022/12/16 00:12:37;;;;;;;36.00;16.05;;;-0.70;99.90;;;;;;5070746;28;20041;-70
2022/12/16 00:15:03;;;;;;;37.13;16.00;;;-0.70;99.90;;;;;;5070777;28;20056;-70
2022/12/16 00:17:29;;;;;;;;;;;-0.70;99.90;;;;;;5058860;28;20054;-70
2022/12/16 00:19:55;;;;;;;39.88;15.75;;;-0.70;99.90;;;;;;5070618;28;19924;-70
2022/12/16 00:22:22;;;;;;;33.65;15.68;;;-0.70;99.90;;;;;;5080268;28;20052;-70
2022/12/16 00:24:47;;;;;;;45.78;17.60;;;-0.70;99.90;;;;;;5088902;28;20036;-70
2022/12/16 00:27:13;;;;;;;41.95;17.42;;;-0.50;99.90;;;;;;5075997;28;20055;-71
2022/12/16 00:29:39;;;;;;;36.05;16.08;;;-0.60;99.90;;;;;;5075477;28;20036;-70
2022/12/16 00:32:05;;;;;;;38.60;16.45;;;-0.60;99.90;;;;;;5090572;28;20048;-70
2022/12/16 00:34:32;;;;;;;43.25;17.08;;;-0.60;99.90;;;;;;5090148;28;20051;-70
2022/12/16 00:36:58;;;;;;;38.20;16.35;;;-0.60;99.90;;;;;;5090580;28;20052;-70
2022/12/16 00:39:23;;;;;;;36.90;16.13;;;-0.50;99.90;;;;;;5074810;28;20052;-72
2022/12/16 00:41:50;;;;;;;37.63;16.15;;;-0.50;99.90;;;;;;5053999;28;20060;-70
2022/12/16 00:44:15;;;;;;;;;;;-0.50;99.90;;;;;;5090011;28;20412;-70
2022/12/16 00:46:41;;;;;;;35.00;16.15;;;-0.50;99.90;;;;;;5089531;28;19924;-70
2022/12/16 00:49:07;;;;;;;38.47;16.77;;;-0.50;99.90;;;;;;5079298;28;20047;-70
2022/12/16 00:51:32;;;;;;;42.83;16.15;;;-0.50;99.90;;;;;;5086940;28;20077;-70
2022/12/16 00:53:58;;;;;;;30.98;15.52;;;-0.50;99.90;;;;;;5081208;28;20052;-70
2022/12/16 00:56:24;;;;;;;35.25;16.13;;;-0.50;99.90;;;;;;5070285;28;20056;-70
2022/12/16 00:58:49;;;;;;;35.30;15.15;;;-0.50;99.90;;;;;;5069980;28;20114;-70
2022/12/16 01:01:15;;;;;;;40.42;15.82;;;-0.50;99.90;;;;;;5069925;28;20044;-70
2022/12/16 01:03:41;;;;;;;37.65;14.98;;;-0.50;99.90;;;;;;5076315;28;20055;-70
2022/12/16 01:06:13;;;;;;;38.35;14.38;;;-0.50;99.90;;;;;;5090328;28;20056;-70
2022/12/16 01:08:39;;;;;;;47.60;16.83;;;-0.60;99.90;;;;;;5058362;28;20473;-70
2022/12/16 01:11:04;;;;;;;38.85;16.45;;;-0.60;99.90;;;;;;5070308;28;20127;-70
2022/12/16 01:13:30;;;;;;;37.42;16.08;;;-0.60;99.90;;;;;;5069821;28;20071;-70
2022/12/16 01:16:00;;;;;;;35.08;16.27;;;-0.20;99.90;;;;;;5070799;28;20044;-70
2022/12/16 01:18:26;;;;;;;42.47;17.08;;;-0.60;99.90;;;;;;5052592;28;20051;-70
2022/12/16 01:20:51;;;;;;;35.75;14.93;;;-0.30;99.90;;;;;;5069545;28;20044;-71
2022/12/16 01:23:17;;;;;;;41.33;16.83;;;-0.70;99.90;;;;;;5069397;28;20048;-70
2022/12/16 01:25:43;;;;;;;42.08;15.75;;;-0.70;99.90;;;;;;5061841;28;20059;-70
2022/12/16 01:28:08;;;;;;;41.30;16.13;;;-0.80;99.90;;;;;;5089442;28;20051;-70
2022/12/16 01:30:34;;;;;;;37.78;16.80;;;-0.80;99.90;;;;;;5070076;28;20501;-70
2022/12/16 01:33:00;;;;;;;41.67;17.80;;;-0.80;99.90;;;;;;5070079;28;20060;-70
2022/12/16 01:35:25;;;;;;;41.90;18.13;;;-0.80;99.90;;;;;;5090193;28;20052;-70
2022/12/16 01:37:51;;;;;;;36.60;16.08;;;-0.80;99.90;;;;;;5089581;28;20090;-70
2022/12/16 01:40:20;;;;;;;48.25;19.02;;;-0.80;99.90;;;;;;5090197;28;20040;-70
2022/12/16 01:42:46;;;;;;;41.40;17.20;;;-0.70;99.90;;;;;;5090055;28;20042;-70
2022/12/16 01:45:23;;;;;;;44.67;17.80;;;-0.80;99.90;;;;;;5089185;28;20048;-70
2022/12/16 01:47:51;;;;;;;39.20;16.73;;;-0.80;99.90;;;;;;5089250;28;20124;-70
2022/12/16 01:50:18;;;;;;;45.65;17.85;;;-0.80;99.90;;;;;;5090582;28;20118;-70
2022/12/16 01:52:46;;;;;;;;;;;-0.80;99.90;;;;;;5071998;28;20424;-70
2022/12/16 01:55:17;;;;;;;39.50;16.63;;;-0.80;99.90;;;;;;5070286;28;20257;-70
2022/12/16 01:57:57;;;;;;;36.20;16.77;;;-0.80;99.90;;;;;;5093375;28;20052;-70
2022/12/16 02:00:23;;;;;;;42.90;17.25;;;-0.90;99.90;;;;;;5085774;28;20036;-70
2022/12/16 02:02:51;;;;;;;46.42;19.48;;;-0.90;99.90;;;;;;5093260;28;20537;-70
2022/12/16 02:05:20;;;;;;;41.85;18.20;;;-1.00;99.90;;;;;;5094251;28;20083;-70
2022/12/16 02:08:08;;;;;;;41.95;17.20;;;-1.00;99.90;;;;;;5092820;28;20048;-72
2022/12/16 02:11:07;;;;;;;50.22;19.42;;;-1.00;99.90;;;;;;5079864;28;20482;-72
2022/12/16 02:14:00;;;;;;;47.63;18.15;;;-0.90;99.90;;;;;;5055215;28;20052;-72
2022/12/16 02:16:34;;;;;;;41.92;16.67;;;-0.90;99.90;;;;;;5074702;28;20070;-70
2022/12/16 02:19:09;;;;;;;48.15;20.15;;;-0.90;99.90;;;;;;5073744;28;20044;-70
2022/12/16 02:21:41;;;;;;;40.45;17.95;;;-1.00;99.90;;;;;;5058234;28;20371;-72
2022/12/16 02:24:31;;;;;;;48.33;18.77;;;-1.00;99.90;;;;;;5085324;28;20048;-70
2022/12/16 02:27:05;;;;;;;39.97;16.48;;;-1.00;99.90;;;;;;5073105;28;20044;-70
2022/12/16 02:29:54;;;;;;;42.15;17.00;;;-1.00;99.90;;;;;;5073223;28;20052;-70
2022/12/16 02:32:31;;;;;;;45.63;17.92;;;-1.00;99.90;;;;;;5075050;28;20045;-70
2022/12/16 02:35:14;;;;;;;55.67;19.73;;;-1.10;99.90;;;;;;5093176;28;20044;-70
2022/12/16 02:37:52;;;;;;;46.80;16.88;;;-1.10;99.90;;;;;;5092737;28;20052;-70
2022/12/16 02:40:32;;;;;;;50.92;18.55;;;-1.10;99.90;;;;;;5091382;28;20040;-70
2022/12/16 02:43:06;;;;;;;43.63;18.20;;;-1.10;99.90;;;;;;5092675;28;20048;-70
2022/12/16 02:45:32;;;;;;;50.47;17.67;;;-1.10;99.90;;;;;;5093349;28;20583;-70
2022/12/16 02:47:58;;;;;;;48.80;18.02;;;-1.10;99.90;;;;;;5082512;28;20059;-70
2022/12/16 02:50:33;;;;;;;40.60;16.98;;;-1.10;99.90;;;;;;5093636;28;20123;-70
2022/12/16 02:53:01;;;;;;;41.50;17.05;;;-1.00;99.90;;;;;;5092277;28;20119;-70
2022/12/16 02:56:00;;;;;;;44.22;16.85;;;-1.10;99.90;;;;;;5074745;28;20087;-70
2022/12/16 02:58:33;;;;;;;44.22;18.20;;;-1.00;99.90;;;;;;5092467;28;20044;-70
2022/12/16 03:01:07;;;;;;;42.53;17.40;;;-1.10;99.90;;;;;;5089823;28;20870;-70
2022/12/16 03:03:45;;;;;;;51.05;19.75;;;-0.80;99.90;;;;;;5092102;28;20123;-70
2022/12/16 03:06:13;;;;;;;47.58;17.65;;;-1.00;99.90;;;;;;5092224;28;20052;-70
2022/12/16 03:08:44;;;;;;;54.03;19.23;;;-1.00;99.90;;;;;;5091737;28;20060;-70
2022/12/16 03:11:10;;;;;;;44.35;17.25;;;-1.00;99.90;;;;;;5092627;28;20095;-70
2022/12/16 03:13:39;;;;;;;;;;;-1.00;99.90;;;;;;5093051;28;20450;-70
2022/12/16 03:16:08;;;;;;;45.95;18.48;;;-1.00;99.90;;;;;;5073997;28;19920;-71
2022/12/16 03:18:37;;;;;;;41.80;18.25;;;-1.00;99.90;;;;;;5093065;28;20093;-70
2022/12/16 03:21:06;;;;;;;43.92;17.42;;;-1.00;99.90;;;;;;5086832;28;20388;-71
2022/12/16 03:23:44;;;;;;;50.03;17.85;;;-1.00;99.90;;;;;;5072241;28;20620;-70
2022/12/16 03:26:17;;;;;;;46.47;19.17;;;-1.00;99.90;;;;;;5072025;28;20055;-70
2022/12/16 03:28:52;;;;;;;50.10;17.98;;;-1.00;99.90;;;;;;5071918;28;20066;-72
2022/12/16 03:31:47;;;;;;;51.10;19.27;;;-1.00;99.90;;;;;;5071782;28;20049;-70
2022/12/16 03:34:24;;;;;;;46.72;17.88;;;-1.00;99.90;;;;;;5090067;28;20551;-71
2022/12/16 03:36:55;;;;;;;48.42;19.27;;;-0.90;99.90;;;;;;5091721;28;20048;-70
2022/12/16 03:39:22;;;;;;;44.55;18.17;;;-0.80;99.90;;;;;;5072364;28;20044;-70
2022/12/16 03:41:52;;;;;;;45.28;19.25;;;-0.90;99.90;;;;;;5083574;28;20131;-71
2022/12/16 03:44:19;;;;;;;46.83;19.98;;;-0.90;99.90;;;;;;5090655;28;20050;-70
2022/12/16 03:46:45;;;;;;;45.33;18.58;;;-0.90;99.90;;;;;;5073696;28;20052;-72
2022/12/16 03:49:10;;;;;;;46.15;18.27;;;-0.90;99.90;;;;;;5092200;28;20078;-70
2022/12/16 03:51:36;;;;;;;51.35;18.58;;;-0.90;99.90;;;;;;5091954;28;20485;-70
2022/12/16 03:54:02;;;;;;;47.42;18.33;;;-0.90;99.90;;;;;;5091675;28;20124;-70
2022/12/16 03:56:27;;;;;;;43.33;17.58;;;-0.90;99.90;;;;;;5088479;28;20044;-70
2022/12/16 03:58:53;;;;;;;48.78;20.55;;;-0.80;99.90;;;;;;5070847;28;20048;-70
2022/12/16 04:01:18;;;;;;;45.55;17.92;;;-0.80;99.90;;;;;;5053367;28;20048;-70
2022/12/16 04:03:44;;;;;;;54.55;19.95;;;-0.80;99.90;;;;;;5075357;28;20044;-70
2022/12/16 04:06:10;;;;;;;46.90;19.25;;;-0.80;99.90;;;;;;5090826;28;20155;-70
2022/12/16 04:08:35;;;;;;;45.13;18.30;;;-0.80;99.90;;;;;;5085223;28;20059;-70
2022/12/16 04:25:09;;;;;;;45.40;17.75;;;-0.80;99.90;;;;;;5070406;28;20131;-70
2022/12/16 04:27:34;;;;;;;48.28;18.08;;;-0.80;99.90;;;;;;5080977;28;20039;-70
2022/12/16 04:30:18;;;;;;;39.30;18.00;;;-0.80;99.90;;;;;;5090642;28;20055;-70
